Hardesty, OK

4:25 PM CDT on August 27, 2014 (GMT -0500)
Guymon Municipal | Change Station
CLOSE
Current Station
Airport
Location: Guymon,
Elevation: 3123 ft
Nearby Weather Stations
Active Advisory: Special Statement

Elev 3123 ft 36.68 °N, 101.51 °W | Updated 32 minutes ago

Scattered Clouds
Scattered Clouds
90 °F
Feels Like 90 °F
N
18
Wind Variable Wind from SSW
Gusts 28 mph

Today
High -- | Low -- °F
--% Chance of Precip.
Yesterday
High -- | Low -- °F
Precip. -- in
7:11 AM 8:19 PM
Waxing Crescent, 5% visible
Pressure 29.88 in
Visibility 10.0 miles
Clouds Scattered Clouds 11000 ft
Heat Index 90 °F
Dew Point 61 °F
Humidity 38%
Rainfall 0.14 in
Snow Depth Not available.
UV 6 out of 12
Pollen 9.20 out of 12
Air Quality Not available.
Flu Activity Not available.
METAR KGUY 272053Z AUTO 21016G24KT 10SM SCT110 32/16 A3002 RMK AO2 LTG DSNT E AND SE SLP116 T03220161 58023

More Conditions Fewer Conditions

Pressure 29.88 in
Visibility 10.0 miles
Clouds Scattered Clouds 11000 ft
Heat Index 90 °F
Dew Point 61 °F
Humidity 38%
Rainfall 0.14 in
Snow Depth Not available.
UV 6 out of 12
Pollen 9.20 out of 12
Air Quality Not available.
Flu Activity Not available.
METAR KGUY 272053Z AUTO 21016G24KT 10SM SCT110 32/16 A3002 RMK AO2 LTG DSNT E AND SE SLP116 T03220161 58023

More Conditions Fewer Conditions

10-Day Weather Forecast

Almanac

Astronomy

Aug. 27, 2014 Rise Set
Actual Time 7:11 AM CDT 8:19 PM CDT
Civil Twilight 6:45 AM CDT 8:46 PM CDT
Nautical Twilight 6:13 AM CDT 9:18 PM CDT
Astronomical Twilight 5:40 AM CDT 9:50 PM CDT
Moon 9:05 AM CDT 9:17 PM CDT
Length of Visible Light 14h 01m
Length of Day
13h 07m
Tomorrow will be 2m 11s shorter.
Waxing Crescent, 5% of the Moon is Illuminated
Today
Waxing Crescent
Sep 2
First Quarter
Sep 8
Full
Sep 15
Last Quarter
Sep 24
New

Today's Extremes

State Highs State Lows

Community

WunderPhotos

Upload Photos

1,747,791 photos uploaded!

Nearby

Snow Depth

Station Depth Elevation
No new snow has been reported.

Earthquake Activity

City Distance Mag. Time & Date
No recent earthquake activity has been reported nearby.
Minimum magnitude displayed is 2.5.

Coastal Water Temperatures

Place Temperature
No Stations Reporting

Nearby Weather Stations